sensor_id;sensor_type;location;lat;lon;timestamp;P1;durP1;ratioP1;P2;durP2;ratioP2
74415;SDS011;62850;42.428;25.618;2023-09-19T00:00:20;5.93;;;3.15;;
74415;SDS011;62850;42.428;25.618;2023-09-19T00:02:53;8.75;;;3.40;;
74415;SDS011;62850;42.428;25.618;2023-09-19T00:05:19;6.13;;;3.22;;
74415;SDS011;62850;42.428;25.618;2023-09-19T00:07:49;6.05;;;3.55;;
74415;SDS011;62850;42.428;25.618;2023-09-19T00:10:16;7.47;;;3.53;;
74415;SDS011;62850;42.428;25.618;2023-09-19T00:12:45;6.55;;;3.35;;
74415;SDS011;62850;42.428;25.618;2023-09-19T00:15:11;6.10;;;3.22;;
74415;SDS011;62850;42.428;25.618;2023-09-19T00:17:36;7.18;;;3.25;;
74415;SDS011;62850;42.428;25.618;2023-09-19T00:20:02;6.15;;;3.35;;
74415;SDS011;62850;42.428;25.618;2023-09-19T00:22:32;6.90;;;3.33;;
74415;SDS011;62850;42.428;25.618;2023-09-19T00:24:57;6.70;;;3.45;;
74415;SDS011;62850;42.428;25.618;2023-09-19T00:27:23;5.97;;;3.80;;
74415;SDS011;62850;42.428;25.618;2023-09-19T00:29:48;6.07;;;3.00;;
74415;SDS011;62850;42.428;25.618;2023-09-19T00:32:14;5.60;;;3.13;;
74415;SDS011;62850;42.428;25.618;2023-09-19T00:34:39;7.40;;;3.15;;
74415;SDS011;62850;42.428;25.618;2023-09-19T00:37:05;5.72;;;3.15;;
74415;SDS011;62850;42.428;25.618;2023-09-19T00:39:30;5.47;;;2.97;;
74415;SDS011;62850;42.428;25.618;2023-09-19T00:41:56;6.30;;;3.25;;
74415;SDS011;62850;42.428;25.618;2023-09-19T00:44:22;7.15;;;3.20;;
74415;SDS011;62850;42.428;25.618;2023-09-19T00:46:48;6.32;;;3.30;;
74415;SDS011;62850;42.428;25.618;2023-09-19T00:49:15;9.50;;;3.65;;
74415;SDS011;62850;42.428;25.618;2023-09-19T00:51:41;9.90;;;3.30;;
74415;SDS011;62850;42.428;25.618;2023-09-19T00:54:11;8.10;;;3.40;;
74415;SDS011;62850;42.428;25.618;2023-09-19T00:56:43;6.13;;;3.45;;
74415;SDS011;62850;42.428;25.618;2023-09-19T00:59:09;6.00;;;3.17;;
74415;SDS011;62850;42.428;25.618;2023-09-19T01:01:36;7.82;;;3.30;;
74415;SDS011;62850;42.428;25.618;2023-09-19T01:04:05;6.70;;;3.25;;
74415;SDS011;62850;42.428;25.618;2023-09-19T01:06:30;4.95;;;3.05;;
74415;SDS011;62850;42.428;25.618;2023-09-19T01:08:57;5.80;;;3.13;;
74415;SDS011;62850;42.428;25.618;2023-09-19T01:11:28;6.57;;;2.92;;
74415;SDS011;62850;42.428;25.618;2023-09-19T01:16:44;5.70;;;3.35;;
74415;SDS011;62850;42.428;25.618;2023-09-19T01:30:24;5.57;;;3.38;;
74415;SDS011;62850;42.428;25.618;2023-09-19T01:32:54;6.50;;;3.33;;
74415;SDS011;62850;42.428;25.618;2023-09-19T01:35:20;6.15;;;3.20;;
74415;SDS011;62850;42.428;25.618;2023-09-19T01:37:45;7.25;;;3.40;;
74415;SDS011;62850;42.428;25.618;2023-09-19T01:40:12;7.45;;;3.70;;
74415;SDS011;62850;42.428;25.618;2023-09-19T01:45:44;5.65;;;3.20;;
74415;SDS011;62850;42.428;25.618;2023-09-19T01:51:00;5.40;;;3.20;;
74415;SDS011;62850;42.428;25.618;2023-09-19T01:53:28;7.63;;;3.50;;
74415;SDS011;62850;42.428;25.618;2023-09-19T01:55:58;7.95;;;3.38;;
74415;SDS011;62850;42.428;25.618;2023-09-19T01:58:37;5.03;;;3.30;;
74415;SDS011;62850;42.428;25.618;2023-09-19T02:01:08;6.32;;;3.30;;
74415;SDS011;62850;42.428;25.618;2023-09-19T02:03:38;8.05;;;3.53;;
74415;SDS011;62850;42.428;25.618;2023-09-19T02:06:06;6.55;;;3.67;;
74415;SDS011;62850;42.428;25.618;2023-09-19T02:08:36;5.72;;;3.03;;
74415;SDS011;62850;42.428;25.618;2023-09-19T02:11:02;5.95;;;3.60;;
74415;SDS011;62850;42.428;25.618;2023-09-19T02:13:27;6.40;;;3.00;;
74415;SDS011;62850;42.428;25.618;2023-09-19T02:15:53;6.40;;;3.33;;
74415;SDS011;62850;42.428;25.618;2023-09-19T02:18:18;6.82;;;3.20;;
74415;SDS011;62850;42.428;25.618;2023-09-19T02:20:44;7.53;;;3.55;;
74415;SDS011;62850;42.428;25.618;2023-09-19T02:23:11;5.82;;;3.65;;
74415;SDS011;62850;42.428;25.618;2023-09-19T02:25:37;6.07;;;3.42;;
74415;SDS011;62850;42.428;25.618;2023-09-19T02:28:05;6.53;;;3.80;;
74415;SDS011;62850;42.428;25.618;2023-09-19T02:30:31;6.97;;;3.60;;
74415;SDS011;62850;42.428;25.618;2023-09-19T02:32:58;8.95;;;3.50;;
74415;SDS011;62850;42.428;25.618;2023-09-19T02:35:26;6.95;;;3.42;;
74415;SDS011;62850;42.428;25.618;2023-09-19T02:37:53;7.68;;;3.80;;
74415;SDS011;62850;42.428;25.618;2023-09-19T02:40:18;5.88;;;3.30;;
74415;SDS011;62850;42.428;25.618;2023-09-19T02:42:45;8.15;;;3.97;;
74415;SDS011;62850;42.428;25.618;2023-09-19T02:45:12;7.95;;;3.42;;
74415;SDS011;62850;42.428;25.618;2023-09-19T02:47:39;6.40;;;3.53;;
74415;SDS011;62850;42.428;25.618;2023-09-19T02:50:05;11.63;;;3.83;;
74415;SDS011;62850;42.428;25.618;2023-09-19T02:52:31;5.72;;;3.50;;
74415;SDS011;62850;42.428;25.618;2023-09-19T02:54:56;5.65;;;3.47;;
74415;SDS011;62850;42.428;25.618;2023-09-19T02:57:22;6.53;;;3.85;;
74415;SDS011;62850;42.428;25.618;2023-09-19T02:59:49;5.82;;;3.55;;
74415;SDS011;62850;42.428;25.618;2023-09-19T03:02:15;7.22;;;3.50;;
74415;SDS011;62850;42.428;25.618;2023-09-19T03:04:41;8.25;;;3.53;;
74415;SDS011;62850;42.428;25.618;2023-09-19T03:07:06;7.13;;;3.33;;
74415;SDS011;62850;42.428;25.618;2023-09-19T03:09:32;8.18;;;3.60;;
74415;SDS011;62850;42.428;25.618;2023-09-19T03:11:57;7.88;;;3.58;;
74415;SDS011;62850;42.428;25.618;2023-09-19T03:14:24;5.70;;;3.17;;
74415;SDS011;62850;42.428;25.618;2023-09-19T03:16:50;6.40;;;3.60;;
74415;SDS011;62850;42.428;25.618;2023-09-19T03:19:15;7.65;;;3.50;;
74415;SDS011;62850;42.428;25.618;2023-09-19T03:21:41;6.60;;;3.60;;
74415;SDS011;62850;42.428;25.618;2023-09-19T03:24:06;8.25;;;4.07;;
74415;SDS011;62850;42.428;25.618;2023-09-19T03:26:32;5.85;;;3.78;;
74415;SDS011;62850;42.428;25.618;2023-09-19T03:28:58;7.28;;;3.63;;
74415;SDS011;62850;42.428;25.618;2023-09-19T03:31:23;6.55;;;4.00;;
74415;SDS011;62850;42.428;25.618;2023-09-19T03:33:49;6.90;;;3.25;;
74415;SDS011;62850;42.428;25.618;2023-09-19T03:36:14;7.72;;;3.67;;
74415;SDS011;62850;42.428;25.618;2023-09-19T03:38:40;5.53;;;3.30;;
74415;SDS011;62850;42.428;25.618;2023-09-19T03:41:05;7.53;;;3.70;;
74415;SDS011;62850;42.428;25.618;2023-09-19T03:43:34;6.20;;;3.55;;
74415;SDS011;62850;42.428;25.618;2023-09-19T03:46:02;6.28;;;3.05;;
74415;SDS011;62850;42.428;25.618;2023-09-19T03:48:31;7.80;;;3.55;;
74415;SDS011;62850;42.428;25.618;2023-09-19T03:50:56;8.32;;;3.83;;
74415;SDS011;62850;42.428;25.618;2023-09-19T03:53:22;6.18;;;3.45;;
74415;SDS011;62850;42.428;25.618;2023-09-19T03:55:47;7.65;;;4.15;;
74415;SDS011;62850;42.428;25.618;2023-09-19T03:58:13;6.45;;;3.42;;
74415;SDS011;62850;42.428;25.618;2023-09-19T04:00:38;6.78;;;3.88;;
74415;SDS011;62850;42.428;25.618;2023-09-19T04:03:04;8.27;;;4.43;;
74415;SDS011;62850;42.428;25.618;2023-09-19T04:05:31;8.75;;;4.43;;
74415;SDS011;62850;42.428;25.618;2023-09-19T04:07:58;8.52;;;3.90;;
74415;SDS011;62850;42.428;25.618;2023-09-19T04:10:24;6.75;;;3.67;;
74415;SDS011;62850;42.428;25.618;2023-09-19T04:12:53;7.53;;;3.95;;
74415;SDS011;62850;42.428;25.618;2023-09-19T04:15:19;6.65;;;3.58;;
74415;SDS011;62850;42.428;25.618;2023-09-19T04:17:47;7.28;;;3.53;;
74415;SDS011;62850;42.428;25.618;2023-09-19T04:20:13;7.97;;;4.28;;
74415;SDS011;62850;42.428;25.618;2023-09-19T04:22:38;7.90;;;4.05;;
74415;SDS011;62850;42.428;25.618;2023-09-19T04:25:04;8.77;;;3.90;;
74415;SDS011;62850;42.428;25.618;2023-09-19T04:27:32;6.35;;;3.30;;
74415;SDS011;62850;42.428;25.618;2023-09-19T04:29:57;6.88;;;3.90;;
74415;SDS011;62850;42.428;25.618;2023-09-19T04:32:24;6.88;;;4.05;;
74415;SDS011;62850;42.428;25.618;2023-09-19T04:34:53;11.45;;;3.70;;
74415;SDS011;62850;42.428;25.618;2023-09-19T04:37:19;11.90;;;4.50;;
74415;SDS011;62850;42.428;25.618;2023-09-19T04:39:44;6.50;;;3.30;;
74415;SDS011;62850;42.428;25.618;2023-09-19T04:42:12;8.57;;;3.85;;
74415;SDS011;62850;42.428;25.618;2023-09-19T04:44:39;8.55;;;3.78;;
74415;SDS011;62850;42.428;25.618;2023-09-19T04:47:05;6.05;;;3.50;;
74415;SDS011;62850;42.428;25.618;2023-09-19T04:49:31;7.70;;;3.40;;
74415;SDS011;62850;42.428;25.618;2023-09-19T04:51:56;8.40;;;3.88;;
74415;SDS011;62850;42.428;25.618;2023-09-19T04:54:22;7.80;;;3.35;;
74415;SDS011;62850;42.428;25.618;2023-09-19T04:56:47;9.55;;;3.78;;
74415;SDS011;62850;42.428;25.618;2023-09-19T04:59:13;8.30;;;3.45;;
74415;SDS011;62850;42.428;25.618;2023-09-19T05:01:40;8.77;;;3.75;;
74415;SDS011;62850;42.428;25.618;2023-09-19T05:04:05;5.95;;;3.42;;
74415;SDS011;62850;42.428;25.618;2023-09-19T05:06:31;5.95;;;3.55;;
74415;SDS011;62850;42.428;25.618;2023-09-19T05:08:56;6.18;;;3.28;;
74415;SDS011;62850;42.428;25.618;2023-09-19T05:11:22;5.95;;;3.47;;
74415;SDS011;62850;42.428;25.618;2023-09-19T05:13:48;9.23;;;3.88;;
74415;SDS011;62850;42.428;25.618;2023-09-19T05:16:18;11.18;;;4.05;;
74415;SDS011;62850;42.428;25.618;2023-09-19T05:18:44;10.23;;;4.88;;
74415;SDS011;62850;42.428;25.618;2023-09-19T05:21:10;13.70;;;5.47;;
74415;SDS011;62850;42.428;25.618;2023-09-19T05:23:35;12.27;;;4.38;;
74415;SDS011;62850;42.428;25.618;2023-09-19T05:26:02;9.43;;;4.18;;
74415;SDS011;62850;42.428;25.618;2023-09-19T05:28:29;9.88;;;5.10;;
74415;SDS011;62850;42.428;25.618;2023-09-19T05:30:54;9.75;;;4.30;;
74415;SDS011;62850;42.428;25.618;2023-09-19T05:33:20;18.77;;;6.43;;
74415;SDS011;62850;42.428;25.618;2023-09-19T05:35:45;11.88;;;5.18;;
74415;SDS011;62850;42.428;25.618;2023-09-19T05:38:13;12.68;;;4.70;;
74415;SDS011;62850;42.428;25.618;2023-09-19T05:40:39;14.27;;;5.13;;
74415;SDS011;62850;42.428;25.618;2023-09-19T05:43:10;11.27;;;4.70;;
74415;SDS011;62850;42.428;25.618;2023-09-19T05:45:35;11.10;;;5.50;;
74415;SDS011;62850;42.428;25.618;2023-09-19T05:48:14;10.05;;;4.80;;
74415;SDS011;62850;42.428;25.618;2023-09-19T05:50:41;10.07;;;4.80;;
74415;SDS011;62850;42.428;25.618;2023-09-19T05:53:07;9.27;;;5.07;;
74415;SDS011;62850;42.428;25.618;2023-09-19T05:55:33;14.80;;;5.57;;
74415;SDS011;62850;42.428;25.618;2023-09-19T05:57:59;16.02;;;7.38;;
74415;SDS011;62850;42.428;25.618;2023-09-19T06:00:25;20.50;;;8.13;;
74415;SDS011;62850;42.428;25.618;2023-09-19T06:02:56;17.25;;;6.53;;
74415;SDS011;62850;42.428;25.618;2023-09-19T06:05:23;12.73;;;5.63;;
74415;SDS011;62850;42.428;25.618;2023-09-19T06:07:52;12.88;;;5.18;;
74415;SDS011;62850;42.428;25.618;2023-09-19T06:10:18;33.10;;;10.75;;
74415;SDS011;62850;42.428;25.618;2023-09-19T06:12:45;142.32;;;37.40;;
74415;SDS011;62850;42.428;25.618;2023-09-19T06:15:15;212.57;;;74.35;;
74415;SDS011;62850;42.428;25.618;2023-09-19T06:17:50;140.25;;;53.08;;
74415;SDS011;62850;42.428;25.618;2023-09-19T06:20:24;79.43;;;31.20;;
74415;SDS011;62850;42.428;25.618;2023-09-19T06:22:53;69.78;;;25.33;;
74415;SDS011;62850;42.428;25.618;2023-09-19T06:25:19;58.22;;;22.52;;
74415;SDS011;62850;42.428;25.618;2023-09-19T06:27:48;40.67;;;15.98;;
74415;SDS011;62850;42.428;25.618;2023-09-19T06:30:17;26.10;;;11.70;;
74415;SDS011;62850;42.428;25.618;2023-09-19T06:32:43;19.25;;;7.60;;
74415;SDS011;62850;42.428;25.618;2023-09-19T06:35:09;14.30;;;6.63;;
74415;SDS011;62850;42.428;25.618;2023-09-19T06:37:36;14.00;;;5.82;;
74415;SDS011;62850;42.428;25.618;2023-09-19T06:40:08;9.52;;;5.00;;
74415;SDS011;62850;42.428;25.618;2023-09-19T06:42:43;9.73;;;4.85;;
74415;SDS011;62850;42.428;25.618;2023-09-19T06:45:10;6.47;;;3.92;;
74415;SDS011;62850;42.428;25.618;2023-09-19T06:47:38;9.40;;;3.38;;
74415;SDS011;62850;42.428;25.618;2023-09-19T06:50:04;8.68;;;3.67;;
74415;SDS011;62850;42.428;25.618;2023-09-19T06:52:31;6.57;;;3.50;;
74415;SDS011;62850;42.428;25.618;2023-09-19T06:54:58;8.50;;;3.50;;
74415;SDS011;62850;42.428;25.618;2023-09-19T06:57:23;9.23;;;3.00;;
74415;SDS011;62850;42.428;25.618;2023-09-19T06:59:49;5.70;;;3.03;;
74415;SDS011;62850;42.428;25.618;2023-09-19T07:02:15;8.13;;;3.20;;
74415;SDS011;62850;42.428;25.618;2023-09-19T07:04:40;7.88;;;3.80;;
74415;SDS011;62850;42.428;25.618;2023-09-19T07:07:06;11.32;;;3.60;;
74415;SDS011;62850;42.428;25.618;2023-09-19T07:09:34;8.18;;;3.35;;
74415;SDS011;62850;42.428;25.618;2023-09-19T07:12:00;6.00;;;3.50;;
74415;SDS011;62850;42.428;25.618;2023-09-19T07:14:25;6.07;;;3.50;;
74415;SDS011;62850;42.428;25.618;2023-09-19T07:16:51;6.30;;;3.55;;
74415;SDS011;62850;42.428;25.618;2023-09-19T07:19:17;7.13;;;3.38;;
74415;SDS011;62850;42.428;25.618;2023-09-19T07:21:42;6.90;;;3.47;;
74415;SDS011;62850;42.428;25.618;2023-09-19T07:24:08;6.60;;;3.03;;
74415;SDS011;62850;42.428;25.618;2023-09-19T07:26:33;5.72;;;3.25;;
74415;SDS011;62850;42.428;25.618;2023-09-19T07:28:59;5.78;;;3.00;;
74415;SDS011;62850;42.428;25.618;2023-09-19T07:31:27;6.22;;;3.25;;
74415;SDS011;62850;42.428;25.618;2023-09-19T07:33:53;4.82;;;2.75;;
74415;SDS011;62850;42.428;25.618;2023-09-19T07:36:19;6.68;;;3.03;;
74415;SDS011;62850;42.428;25.618;2023-09-19T07:38:45;5.25;;;2.70;;
74415;SDS011;62850;42.428;25.618;2023-09-19T07:41:10;4.93;;;2.75;;
74415;SDS011;62850;42.428;25.618;2023-09-19T07:43:36;5.30;;;3.00;;
74415;SDS011;62850;42.428;25.618;2023-09-19T07:46:04;7.53;;;3.08;;
74415;SDS011;62850;42.428;25.618;2023-09-19T07:48:32;5.35;;;3.10;;
74415;SDS011;62850;42.428;25.618;2023-09-19T07:51:02;6.55;;;3.30;;
74415;SDS011;62850;42.428;25.618;2023-09-19T07:53:31;7.05;;;3.20;;
74415;SDS011;62850;42.428;25.618;2023-09-19T07:56:05;7.00;;;3.33;;
74415;SDS011;62850;42.428;25.618;2023-09-19T07:58:32;6.88;;;3.03;;
74415;SDS011;62850;42.428;25.618;2023-09-19T08:01:07;5.90;;;2.72;;
74415;SDS011;62850;42.428;25.618;2023-09-19T08:03:36;4.68;;;2.60;;
74415;SDS011;62850;42.428;25.618;2023-09-19T08:06:09;6.18;;;2.80;;
74415;SDS011;62850;42.428;25.618;2023-09-19T08:08:35;7.53;;;2.83;;
74415;SDS011;62850;42.428;25.618;2023-09-19T08:11:04;6.00;;;2.70;;
74415;SDS011;62850;42.428;25.618;2023-09-19T08:13:40;6.65;;;3.08;;
74415;SDS011;62850;42.428;25.618;2023-09-19T08:16:11;5.68;;;3.00;;
74415;SDS011;62850;42.428;25.618;2023-09-19T08:18:37;6.93;;;3.08;;
74415;SDS011;62850;42.428;25.618;2023-09-19T08:21:06;5.30;;;3.00;;
74415;SDS011;62850;42.428;25.618;2023-09-19T08:23:36;6.38;;;3.10;;
74415;SDS011;62850;42.428;25.618;2023-09-19T08:26:04;5.07;;;2.70;;
74415;SDS011;62850;42.428;25.618;2023-09-19T08:28:33;4.05;;;2.53;;
74415;SDS011;62850;42.428;25.618;2023-09-19T08:31:03;5.68;;;2.95;;
74415;SDS011;62850;42.428;25.618;2023-09-19T08:33:35;6.30;;;2.90;;
74415;SDS011;62850;42.428;25.618;2023-09-19T08:36:04;5.22;;;2.67;;
74415;SDS011;62850;42.428;25.618;2023-09-19T08:38:34;7.32;;;2.80;;
74415;SDS011;62850;42.428;25.618;2023-09-19T08:41:00;7.25;;;3.38;;
74415;SDS011;62850;42.428;25.618;2023-09-19T08:43:30;5.93;;;2.72;;
74415;SDS011;62850;42.428;25.618;2023-09-19T08:45:58;4.50;;;2.53;;
74415;SDS011;62850;42.428;25.618;2023-09-19T08:48:34;7.55;;;2.97;;
74415;SDS011;62850;42.428;25.618;2023-09-19T08:53:40;7.95;;;2.97;;
74415;SDS011;62850;42.428;25.618;2023-09-19T08:56:11;5.15;;;3.00;;
74415;SDS011;62850;42.428;25.618;2023-09-19T08:58:44;9.27;;;2.97;;
74415;SDS011;62850;42.428;25.618;2023-09-19T09:01:16;5.97;;;2.63;;
74415;SDS011;62850;42.428;25.618;2023-09-19T09:03:49;6.35;;;2.78;;
74415;SDS011;62850;42.428;25.618;2023-09-19T09:06:20;4.97;;;2.50;;
74415;SDS011;62850;42.428;25.618;2023-09-19T09:08:46;5.00;;;2.72;;
74415;SDS011;62850;42.428;25.618;2023-09-19T09:11:15;4.95;;;2.70;;
74415;SDS011;62850;42.428;25.618;2023-09-19T09:13:43;4.75;;;2.85;;
74415;SDS011;62850;42.428;25.618;2023-09-19T09:16:09;6.60;;;2.55;;
74415;SDS011;62850;42.428;25.618;2023-09-19T09:18:36;5.80;;;2.72;;
74415;SDS011;62850;42.428;25.618;2023-09-19T09:21:02;5.57;;;2.80;;
74415;SDS011;62850;42.428;25.618;2023-09-19T09:23:29;5.47;;;3.00;;
74415;SDS011;62850;42.428;25.618;2023-09-19T09:25:57;7.20;;;2.70;;
74415;SDS011;62850;42.428;25.618;2023-09-19T09:28:27;5.32;;;3.00;;
74415;SDS011;62850;42.428;25.618;2023-09-19T09:30:55;6.13;;;3.00;;
74415;SDS011;62850;42.428;25.618;2023-09-19T09:33:23;7.28;;;2.50;;
74415;SDS011;62850;42.428;25.618;2023-09-19T09:35:56;6.25;;;2.88;;
74415;SDS011;62850;42.428;25.618;2023-09-19T09:39:07;13.32;;;4.35;;
74415;SDS011;62850;42.428;25.618;2023-09-19T09:41:15;4.88;;;2.92;;
74415;SDS011;62850;42.428;25.618;2023-09-19T09:43:52;5.75;;;3.10;;
74415;SDS011;62850;42.428;25.618;2023-09-19T09:46:20;4.43;;;2.42;;
74415;SDS011;62850;42.428;25.618;2023-09-19T09:48:46;6.13;;;2.78;;
74415;SDS011;62850;42.428;25.618;2023-09-19T09:51:33;5.72;;;2.90;;
74415;SDS011;62850;42.428;25.618;2023-09-19T10:02:11;5.50;;;2.85;;
74415;SDS011;62850;42.428;25.618;2023-09-19T10:04:53;7.05;;;3.00;;
74415;SDS011;62850;42.428;25.618;2023-09-19T10:07:45;6.10;;;2.90;;
74415;SDS011;62850;42.428;25.618;2023-09-19T10:10:37;6.78;;;3.05;;
74415;SDS011;62850;42.428;25.618;2023-09-19T10:13:08;4.57;;;2.53;;
74415;SDS011;62850;42.428;25.618;2023-09-19T10:15:40;6.15;;;2.50;;
74415;SDS011;62850;42.428;25.618;2023-09-19T10:18:15;7.07;;;3.15;;
74415;SDS011;62850;42.428;25.618;2023-09-19T10:20:45;5.15;;;2.95;;
74415;SDS011;62850;42.428;25.618;2023-09-19T10:23:12;7.13;;;3.22;;
74415;SDS011;62850;42.428;25.618;2023-09-19T10:25:42;5.20;;;2.80;;
74415;SDS011;62850;42.428;25.618;2023-09-19T10:28:12;8.27;;;2.80;;
74415;SDS011;62850;42.428;25.618;2023-09-19T10:30:42;5.40;;;3.35;;
74415;SDS011;62850;42.428;25.618;2023-09-19T10:33:10;6.28;;;3.40;;
74415;SDS011;62850;42.428;25.618;2023-09-19T10:35:44;5.03;;;3.00;;
74415;SDS011;62850;42.428;25.618;2023-09-19T10:38:11;6.25;;;2.63;;
74415;SDS011;62850;42.428;25.618;2023-09-19T10:40:38;5.05;;;2.60;;
74415;SDS011;62850;42.428;25.618;2023-09-19T10:43:17;5.47;;;3.22;;
74415;SDS011;62850;42.428;25.618;2023-09-19T10:45:50;6.03;;;3.25;;
74415;SDS011;62850;42.428;25.618;2023-09-19T10:48:18;9.05;;;4.28;;
74415;SDS011;62850;42.428;25.618;2023-09-19T10:50:52;6.38;;;4.25;;
74415;SDS011;62850;42.428;25.618;2023-09-19T10:56:23;5.68;;;2.50;;
74415;SDS011;62850;42.428;25.618;2023-09-19T10:59:05;4.85;;;2.78;;
74415;SDS011;62850;42.428;25.618;2023-09-19T11:01:45;6.20;;;2.65;;
74415;SDS011;62850;42.428;25.618;2023-09-19T11:07:00;6.95;;;3.08;;
74415;SDS011;62850;42.428;25.618;2023-09-19T11:09:46;6.93;;;3.22;;
74415;SDS011;62850;42.428;25.618;2023-09-19T11:14:56;9.07;;;3.58;;
74415;SDS011;62850;42.428;25.618;2023-09-19T11:17:33;9.43;;;3.78;;
74415;SDS011;62850;42.428;25.618;2023-09-19T11:30:37;5.97;;;2.47;;
74415;SDS011;62850;42.428;25.618;2023-09-19T11:36:04;6.00;;;2.90;;
74415;SDS011;62850;42.428;25.618;2023-09-19T11:43:52;4.70;;;2.63;;
74415;SDS011;62850;42.428;25.618;2023-09-19T11:46:24;5.60;;;3.38;;
74415;SDS011;62850;42.428;25.618;2023-09-19T11:48:50;5.53;;;2.90;;
74415;SDS011;62850;42.428;25.618;2023-09-19T11:53:49;6.40;;;2.75;;
74415;SDS011;62850;42.428;25.618;2023-09-19T11:56:16;5.10;;;2.63;;
74415;SDS011;62850;42.428;25.618;2023-09-19T11:58:45;9.38;;;3.10;;
74415;SDS011;62850;42.428;25.618;2023-09-19T12:01:14;5.97;;;2.80;;
74415;SDS011;62850;42.428;25.618;2023-09-19T12:03:46;9.32;;;2.80;;
74415;SDS011;62850;42.428;25.618;2023-09-19T12:06:15;5.85;;;2.65;;
74415;SDS011;62850;42.428;25.618;2023-09-19T12:08:42;5.63;;;3.00;;
74415;SDS011;62850;42.428;25.618;2023-09-19T12:11:15;5.45;;;2.92;;
74415;SDS011;62850;42.428;25.618;2023-09-19T12:13:42;7.18;;;3.20;;
74415;SDS011;62850;42.428;25.618;2023-09-19T12:16:15;4.70;;;2.65;;
74415;SDS011;62850;42.428;25.618;2023-09-19T12:18:42;5.30;;;2.75;;
74415;SDS011;62850;42.428;25.618;2023-09-19T12:21:20;6.22;;;2.92;;
74415;SDS011;62850;42.428;25.618;2023-09-19T12:26:41;5.85;;;3.50;;
74415;SDS011;62850;42.428;25.618;2023-09-19T12:29:26;9.55;;;2.95;;
74415;SDS011;62850;42.428;25.618;2023-09-19T12:31:53;5.63;;;3.08;;
74415;SDS011;62850;42.428;25.618;2023-09-19T12:34:25;13.55;;;3.42;;
74415;SDS011;62850;42.428;25.618;2023-09-19T12:39:52;9.50;;;3.13;;
74415;SDS011;62850;42.428;25.618;2023-09-19T12:42:23;6.65;;;3.22;;
74415;SDS011;62850;42.428;25.618;2023-09-19T12:44:54;7.60;;;3.13;;
74415;SDS011;62850;42.428;25.618;2023-09-19T12:47:21;7.93;;;2.80;;
74415;SDS011;62850;42.428;25.618;2023-09-19T12:52:54;8.38;;;2.95;;
74415;SDS011;62850;42.428;25.618;2023-09-19T12:58:13;6.00;;;2.55;;
74415;SDS011;62850;42.428;25.618;2023-09-19T13:00:41;5.00;;;2.40;;
74415;SDS011;62850;42.428;25.618;2023-09-19T13:05:53;7.22;;;2.60;;
74415;SDS011;62850;42.428;25.618;2023-09-19T13:08:30;4.70;;;2.38;;
74415;SDS011;62850;42.428;25.618;2023-09-19T13:13:41;6.43;;;3.00;;
74415;SDS011;62850;42.428;25.618;2023-09-19T13:16:13;4.07;;;2.50;;
74415;SDS011;62850;42.428;25.618;2023-09-19T13:18:48;6.22;;;2.85;;
74415;SDS011;62850;42.428;25.618;2023-09-19T13:21:28;6.47;;;2.78;;
74415;SDS011;62850;42.428;25.618;2023-09-19T13:24:17;5.28;;;2.50;;
74415;SDS011;62850;42.428;25.618;2023-09-19T13:26:48;6.15;;;2.60;;
74415;SDS011;62850;42.428;25.618;2023-09-19T13:29:13;5.57;;;3.03;;
74415;SDS011;62850;42.428;25.618;2023-09-19T13:31:45;4.50;;;2.40;;
74415;SDS011;62850;42.428;25.618;2023-09-19T13:34:13;6.03;;;2.83;;
74415;SDS011;62850;42.428;25.618;2023-09-19T13:36:42;5.57;;;2.80;;
74415;SDS011;62850;42.428;25.618;2023-09-19T13:39:09;7.63;;;2.80;;
74415;SDS011;62850;42.428;25.618;2023-09-19T13:41:41;6.35;;;2.63;;
74415;SDS011;62850;42.428;25.618;2023-09-19T13:44:08;5.20;;;2.75;;
74415;SDS011;62850;42.428;25.618;2023-09-19T13:46:35;6.22;;;2.60;;
74415;SDS011;62850;42.428;25.618;2023-09-19T13:49:02;5.60;;;2.72;;
74415;SDS011;62850;42.428;25.618;2023-09-19T13:51:31;6.55;;;2.72;;
74415;SDS011;62850;42.428;25.618;2023-09-19T13:53:57;4.65;;;2.60;;
74415;SDS011;62850;42.428;25.618;2023-09-19T13:56:22;5.30;;;2.72;;
74415;SDS011;62850;42.428;25.618;2023-09-19T13:58:49;4.47;;;3.00;;
74415;SDS011;62850;42.428;25.618;2023-09-19T14:01:14;6.80;;;2.85;;
74415;SDS011;62850;42.428;25.618;2023-09-19T14:03:41;6.43;;;3.08;;
74415;SDS011;62850;42.428;25.618;2023-09-19T14:06:11;8.13;;;3.13;;
74415;SDS011;62850;42.428;25.618;2023-09-19T14:08:38;7.60;;;3.30;;
74415;SDS011;62850;42.428;25.618;2023-09-19T14:11:09;4.45;;;2.63;;
74415;SDS011;62850;42.428;25.618;2023-09-19T14:13:35;4.40;;;2.63;;
74415;SDS011;62850;42.428;25.618;2023-09-19T14:16:04;7.25;;;3.15;;
74415;SDS011;62850;42.428;25.618;2023-09-19T14:18:31;7.22;;;3.20;;
74415;SDS011;62850;42.428;25.618;2023-09-19T14:20:57;5.78;;;2.95;;
74415;SDS011;62850;42.428;25.618;2023-09-19T14:23:22;8.95;;;3.25;;
74415;SDS011;62850;42.428;25.618;2023-09-19T14:25:48;10.20;;;3.15;;
74415;SDS011;62850;42.428;25.618;2023-09-19T14:28:15;9.55;;;3.15;;
74415;SDS011;62850;42.428;25.618;2023-09-19T14:30:41;5.80;;;3.35;;
74415;SDS011;62850;42.428;25.618;2023-09-19T14:33:06;8.05;;;3.42;;
74415;SDS011;62850;42.428;25.618;2023-09-19T14:35:32;6.93;;;3.20;;
74415;SDS011;62850;42.428;25.618;2023-09-19T14:37:58;8.23;;;3.20;;
74415;SDS011;62850;42.428;25.618;2023-09-19T14:40:23;10.95;;;3.83;;
74415;SDS011;62850;42.428;25.618;2023-09-19T14:42:49;5.45;;;3.10;;
74415;SDS011;62850;42.428;25.618;2023-09-19T14:45:14;7.43;;;3.30;;
74415;SDS011;62850;42.428;25.618;2023-09-19T14:47:43;8.70;;;3.40;;
74415;SDS011;62850;42.428;25.618;2023-09-19T14:50:11;5.75;;;3.53;;
74415;SDS011;62850;42.428;25.618;2023-09-19T14:52:37;9.75;;;3.83;;
74415;SDS011;62850;42.428;25.618;2023-09-19T14:55:05;10.23;;;4.00;;
74415;SDS011;62850;42.428;25.618;2023-09-19T14:57:31;7.97;;;4.38;;
74415;SDS011;62850;42.428;25.618;2023-09-19T14:59:58;8.15;;;4.00;;
74415;SDS011;62850;42.428;25.618;2023-09-19T15:02:23;8.82;;;4.00;;
74415;SDS011;62850;42.428;25.618;2023-09-19T15:04:49;5.28;;;3.47;;
74415;SDS011;62850;42.428;25.618;2023-09-19T15:07:15;6.20;;;3.60;;
74415;SDS011;62850;42.428;25.618;2023-09-19T15:09:42;6.72;;;3.30;;
74415;SDS011;62850;42.428;25.618;2023-09-19T15:12:08;6.47;;;3.60;;
74415;SDS011;62850;42.428;25.618;2023-09-19T15:14:36;8.95;;;3.83;;
74415;SDS011;62850;42.428;25.618;2023-09-19T15:17:04;7.07;;;3.53;;
74415;SDS011;62850;42.428;25.618;2023-09-19T15:19:30;8.88;;;3.20;;
74415;SDS011;62850;42.428;25.618;2023-09-19T15:21:56;8.82;;;3.53;;
74415;SDS011;62850;42.428;25.618;2023-09-19T15:24:22;6.80;;;3.60;;
74415;SDS011;62850;42.428;25.618;2023-09-19T15:26:48;6.35;;;3.67;;
74415;SDS011;62850;42.428;25.618;2023-09-19T15:29:15;9.23;;;3.90;;
74415;SDS011;62850;42.428;25.618;2023-09-19T15:31:41;6.90;;;3.90;;
74415;SDS011;62850;42.428;25.618;2023-09-19T15:34:06;10.18;;;4.78;;
74415;SDS011;62850;42.428;25.618;2023-09-19T15:36:32;12.70;;;4.75;;
74415;SDS011;62850;42.428;25.618;2023-09-19T15:43:56;6.53;;;3.65;;
74415;SDS011;62850;42.428;25.618;2023-09-19T15:46:22;8.43;;;4.30;;
74415;SDS011;62850;42.428;25.618;2023-09-19T15:48:47;7.95;;;4.15;;
74415;SDS011;62850;42.428;25.618;2023-09-19T15:51:13;8.50;;;4.22;;
74415;SDS011;62850;42.428;25.618;2023-09-19T15:53:43;7.32;;;3.90;;
74415;SDS011;62850;42.428;25.618;2023-09-19T15:56:13;8.65;;;4.78;;
74415;SDS011;62850;42.428;25.618;2023-09-19T15:58:40;10.57;;;3.90;;
74415;SDS011;62850;42.428;25.618;2023-09-19T16:01:06;12.10;;;4.72;;